createdAt,value
2018-02-20T00:00:13.806Z,0.00
2018-02-20T00:01:13.770Z,0.00
2018-02-20T00:02:13.737Z,0.00
2018-02-20T00:03:13.703Z,0.00
2018-02-20T00:04:13.678Z,0.00
2018-02-20T00:05:13.646Z,0.00
2018-02-20T00:06:13.611Z,0.00
2018-02-20T00:07:13.574Z,0.00
2018-02-20T00:08:13.543Z,0.00
2018-02-20T00:09:13.510Z,0.00
2018-02-20T00:10:13.486Z,0.00
2018-02-20T00:11:13.449Z,0.00
2018-02-20T00:12:13.408Z,0.00
2018-02-20T00:13:13.373Z,0.00
2018-02-20T00:14:13.349Z,0.00
2018-02-20T00:15:13.319Z,0.00
2018-02-20T00:16:13.283Z,0.00
2018-02-20T00:17:13.242Z,0.00
2018-02-20T00:18:13.210Z,0.00
2018-02-20T00:19:13.177Z,0.00
2018-02-20T00:20:13.149Z,0.00
2018-02-20T00:21:13.114Z,0.00
2018-02-20T00:22:13.083Z,0.00
2018-02-20T00:23:13.294Z,0.00
2018-02-20T00:24:13.015Z,0.00
2018-02-20T00:25:12.985Z,0.00
2018-02-20T00:26:12.947Z,0.00
2018-02-20T00:27:12.915Z,0.00
2018-02-20T00:28:12.875Z,0.00
2018-02-20T00:29:12.853Z,0.00
2018-02-20T00:30:12.817Z,0.00
2018-02-20T00:31:12.782Z,0.00
2018-02-20T00:32:12.748Z,0.00
2018-02-20T00:33:12.716Z,0.00
2018-02-20T00:34:12.987Z,0.00
2018-02-20T00:35:12.648Z,0.00
2018-02-20T00:36:12.635Z,0.00
2018-02-20T00:37:12.592Z,0.00
2018-02-20T00:38:12.553Z,0.00
2018-02-20T00:39:12.518Z,0.00
2018-02-20T00:40:12.490Z,0.00
2018-02-20T00:41:12.450Z,0.00
2018-02-20T00:42:12.423Z,0.00
2018-02-20T00:43:12.389Z,0.00
2018-02-20T00:44:12.348Z,0.00
2018-02-20T00:45:12.322Z,0.00
2018-02-20T00:46:12.283Z,0.00
2018-02-20T00:47:12.256Z,0.00
2018-02-20T00:48:12.230Z,0.00
2018-02-20T00:49:12.190Z,0.00
2018-02-20T00:50:12.158Z,0.00
2018-02-20T00:51:12.125Z,0.00
2018-02-20T00:52:12.087Z,0.00
2018-02-20T00:53:12.051Z,0.00
2018-02-20T00:54:12.024Z,0.00
2018-02-20T00:55:11.998Z,0.00
2018-02-20T00:56:11.966Z,0.00
2018-02-20T00:57:11.920Z,0.00
2018-02-20T00:58:11.884Z,0.00
2018-02-20T00:59:11.852Z,0.00
2018-02-20T01:00:11.834Z,0.00
2018-02-20T01:01:11.796Z,0.00
2018-02-20T01:02:11.755Z,0.00
2018-02-20T01:03:11.973Z,0.00
2018-02-20T01:04:11.690Z,0.00
2018-02-20T01:05:11.663Z,0.00
2018-02-20T01:06:11.632Z,0.00
2018-02-20T01:07:11.601Z,0.00
2018-02-20T01:08:11.560Z,0.00
2018-02-20T01:09:12.324Z,0.00
2018-02-20T01:10:11.497Z,0.00
2018-02-20T01:11:11.467Z,0.00
2018-02-20T01:12:11.425Z,0.00
2018-02-20T01:13:11.389Z,0.00
2018-02-20T01:14:11.360Z,0.00
2018-02-20T01:15:11.681Z,0.00
2018-02-20T01:16:11.301Z,0.00
2018-02-20T01:17:11.267Z,0.00
2018-02-20T01:18:11.228Z,0.00
2018-02-20T01:19:11.196Z,0.00
2018-02-20T01:20:11.412Z,0.00
2018-02-20T01:21:11.129Z,0.00
2018-02-20T01:22:11.098Z,0.00
2018-02-20T01:23:11.061Z,0.00
2018-02-20T01:24:11.023Z,0.00
2018-02-20T01:25:11.003Z,0.00
2018-02-20T01:26:10.967Z,0.00
2018-02-20T01:27:10.935Z,0.00
2018-02-20T01:28:10.895Z,0.00
2018-02-20T01:29:10.862Z,0.00
2018-02-20T01:30:10.828Z,0.00
2018-02-20T01:31:10.801Z,0.00
2018-02-20T01:32:10.769Z,0.00
2018-02-20T01:33:10.737Z,0.00
2018-02-20T01:34:10.699Z,0.00
2018-02-20T01:35:10.664Z,0.00
2018-02-20T01:36:10.632Z,0.00
2018-02-20T01:37:10.599Z,0.00
2018-02-20T01:38:10.821Z,0.00
2018-02-20T01:39:10.536Z,0.00
2018-02-20T01:40:10.497Z,0.00
2018-02-20T01:41:10.466Z,0.00
2018-02-20T01:42:10.434Z,0.00
2018-02-20T01:43:10.402Z,0.00
2018-02-20T01:44:10.368Z,0.00
2018-02-20T01:45:10.332Z,0.00
2018-02-20T01:46:10.302Z,0.00
2018-02-20T01:47:10.271Z,0.00
2018-02-20T01:48:10.234Z,0.00
2018-02-20T01:49:10.203Z,0.00
2018-02-20T01:50:10.163Z,0.00
2018-02-20T01:51:10.137Z,0.00
2018-02-20T01:52:10.105Z,0.00
2018-02-20T01:53:10.076Z,0.00
2018-02-20T01:54:10.044Z,0.00
2018-02-20T01:55:10.014Z,0.00
2018-02-20T01:56:10.273Z,0.00
2018-02-20T01:57:09.942Z,0.00
2018-02-20T01:58:09.924Z,0.00
2018-02-20T01:59:09.876Z,0.00
2018-02-20T02:00:09.834Z,0.00
2018-02-20T02:01:09.800Z,0.00
2018-02-20T02:02:10.072Z,0.00
2018-02-20T02:03:09.740Z,0.00
2018-02-20T02:04:09.709Z,0.00
2018-02-20T02:05:09.677Z,0.00
2018-02-20T02:06:09.642Z,0.00
2018-02-20T02:07:09.906Z,0.00
2018-02-20T02:08:09.575Z,0.00
2018-02-20T02:09:09.543Z,0.00
2018-02-20T02:10:09.506Z,0.00
2018-02-20T02:11:09.472Z,0.00
2018-02-20T02:12:09.433Z,0.00
2018-02-20T02:13:09.404Z,0.00
2018-02-20T02:14:09.377Z,0.00
2018-02-20T02:15:09.348Z,0.00
2018-02-20T02:16:09.302Z,0.00
2018-02-20T02:17:09.274Z,0.00
2018-02-20T02:18:09.241Z,0.00
2018-02-20T02:19:09.460Z,0.00
2018-02-20T02:20:09.173Z,0.00
2018-02-20T02:21:09.143Z,0.00
2018-02-20T02:22:09.107Z,0.00
2018-02-20T02:23:09.075Z,0.00
2018-02-20T02:24:09.039Z,0.00
2018-02-20T02:25:09.012Z,0.00
2018-02-20T02:26:08.980Z,0.00
2018-02-20T02:27:08.948Z,0.00
2018-02-20T02:28:08.908Z,0.00
2018-02-20T02:29:08.874Z,0.00
2018-02-20T02:30:08.845Z,0.00
2018-02-20T02:31:08.812Z,0.00
2018-02-20T02:32:08.782Z,0.00
2018-02-20T02:33:08.738Z,0.00
2018-02-20T02:34:08.715Z,0.00
2018-02-20T02:35:08.676Z,0.00
2018-02-20T02:36:08.645Z,0.00
2018-02-20T02:37:08.962Z,0.00
2018-02-20T02:38:08.576Z,0.00
2018-02-20T02:39:08.549Z,0.00
2018-02-20T02:40:08.510Z,0.00
2018-02-20T02:41:08.487Z,0.00
2018-02-20T02:42:08.445Z,0.00
2018-02-20T02:43:08.419Z,0.00
2018-02-20T02:44:08.381Z,0.00
2018-02-20T02:45:08.339Z,0.00
2018-02-20T02:46:08.317Z,0.00
2018-02-20T02:47:08.280Z,0.00
2018-02-20T02:48:08.537Z,0.00
2018-02-20T02:49:08.207Z,0.00
2018-02-20T02:50:08.180Z,0.00
2018-02-20T02:51:08.146Z,0.00
2018-02-20T02:52:08.113Z,0.00
2018-02-20T02:53:08.075Z,0.00
2018-02-20T02:54:08.042Z,0.00
2018-02-20T02:55:08.017Z,0.00
2018-02-20T02:56:07.975Z,0.00
2018-02-20T02:57:07.937Z,0.00
2018-02-20T02:58:07.906Z,0.00
2018-02-20T02:59:07.882Z,0.00
2018-02-20T03:00:08.094Z,0.00
2018-02-20T03:01:07.817Z,0.00
2018-02-20T03:02:07.769Z,0.00
2018-02-20T03:03:07.737Z,0.00
2018-02-20T03:04:07.706Z,0.00
2018-02-20T03:05:07.683Z,0.00
2018-02-20T03:06:07.948Z,0.00
2018-02-20T03:07:07.621Z,0.00
2018-02-20T03:08:07.577Z,0.00
2018-02-20T03:09:07.538Z,0.00
2018-02-20T03:10:07.511Z,0.00
2018-02-20T03:11:07.481Z,0.00
2018-02-20T03:12:07.743Z,0.00
2018-02-20T03:13:07.407Z,0.00
2018-02-20T03:14:07.375Z,0.00
2018-02-20T03:15:07.339Z,0.00
2018-02-20T03:16:07.305Z,0.00
2018-02-20T03:17:07.277Z,0.00
2018-02-20T03:18:07.486Z,0.00
2018-02-20T03:19:07.209Z,0.00
2018-02-20T03:20:07.174Z,0.00
2018-02-20T03:21:07.142Z,0.00
2018-02-20T03:22:07.103Z,0.00
2018-02-20T03:23:07.075Z,0.00
2018-02-20T03:24:07.038Z,0.00
2018-02-20T03:25:07.005Z,0.00
2018-02-20T03:26:06.975Z,0.00
2018-02-20T03:27:06.942Z,0.00
2018-02-20T03:28:06.897Z,0.00
2018-02-20T03:29:06.867Z,0.00
2018-02-20T03:30:06.835Z,0.00
2018-02-20T03:31:06.804Z,0.00
2018-02-20T03:32:06.782Z,0.00
2018-02-20T03:33:06.742Z,0.00
2018-02-20T03:34:06.702Z,0.00
2018-02-20T03:35:06.679Z,0.00
2018-02-20T03:36:06.633Z,0.00
2018-02-20T03:37:06.601Z,0.00
2018-02-20T03:38:06.575Z,0.00
2018-02-20T03:39:06.538Z,0.00
2018-02-20T03:40:06.503Z,0.00
2018-02-20T03:41:06.720Z,0.00
2018-02-20T03:42:06.440Z,0.00
2018-02-20T03:43:06.408Z,0.00
2018-02-20T03:44:06.373Z,0.00
2018-02-20T03:45:06.337Z,0.00
2018-02-20T03:46:06.297Z,0.00
2018-02-20T03:47:06.266Z,0.00
2018-02-20T03:48:06.236Z,0.00
2018-02-20T03:49:06.199Z,0.00
2018-02-20T03:50:06.165Z,0.00
2018-02-20T03:51:06.134Z,0.00
2018-02-20T03:52:06.100Z,0.00
2018-02-20T03:53:06.070Z,0.00
2018-02-20T03:54:06.035Z,0.00
2018-02-20T03:55:06.009Z,0.00
2018-02-20T03:56:05.967Z,0.00
2018-02-20T03:57:05.940Z,0.00
2018-02-20T03:58:06.207Z,0.00
2018-02-20T03:59:05.870Z,0.00
2018-02-20T04:00:05.828Z,0.00
2018-02-20T04:01:05.794Z,0.00
2018-02-20T04:02:05.759Z,0.00
2018-02-20T04:03:05.727Z,0.00
2018-02-20T04:04:05.996Z,0.00
2018-02-20T04:05:05.670Z,0.00
2018-02-20T04:06:05.632Z,0.00
2018-02-20T04:07:05.596Z,0.00
2018-02-20T04:08:05.566Z,0.00
2018-02-20T04:09:05.532Z,0.00
2018-02-20T04:10:05.500Z,0.00
2018-02-20T04:11:05.467Z,0.00
2018-02-20T04:12:05.436Z,0.00
2018-02-20T04:13:05.412Z,0.00
2018-02-20T04:14:05.362Z,0.00
2018-02-20T04:15:05.332Z,0.00
2018-02-20T04:16:05.301Z,0.00
2018-02-20T04:17:05.259Z,0.00
2018-02-20T04:18:05.231Z,0.00
2018-02-20T04:19:05.196Z,0.00
2018-02-20T04:20:05.166Z,0.00
2018-02-20T04:21:05.133Z,0.00
2018-02-20T04:22:05.096Z,0.00
2018-02-20T04:23:05.064Z,0.00
2018-02-20T04:24:05.044Z,0.00
2018-02-20T04:25:04.995Z,0.00
2018-02-20T04:26:04.988Z,0.00
2018-02-20T04:27:04.932Z,0.00
2018-02-20T04:28:05.239Z,0.00
2018-02-20T04:29:04.860Z,0.00
2018-02-20T04:30:04.831Z,0.00
2018-02-20T04:31:04.797Z,0.00
2018-02-20T04:32:04.761Z,0.00
2018-02-20T04:33:04.722Z,0.00
2018-02-20T04:34:04.687Z,0.00
2018-02-20T04:35:04.658Z,0.00
2018-02-20T04:36:04.626Z,0.00
2018-02-20T04:37:04.589Z,0.00
2018-02-20T04:38:04.555Z,0.00
2018-02-20T04:39:04.829Z,0.00
2018-02-20T04:40:04.491Z,0.00
2018-02-20T04:41:04.453Z,0.00
2018-02-20T04:42:04.420Z,0.00
2018-02-20T04:43:04.388Z,0.00
2018-02-20T04:44:04.348Z,0.00
2018-02-20T04:45:04.321Z,0.00
2018-02-20T04:46:04.284Z,0.00
2018-02-20T04:47:04.256Z,0.00
2018-02-20T04:48:04.217Z,0.00
2018-02-20T04:49:04.178Z,0.00
2018-02-20T04:50:04.158Z,0.00
2018-02-20T04:51:04.113Z,0.00
2018-02-20T04:52:04.085Z,0.00
2018-02-20T04:53:04.050Z,0.00
2018-02-20T04:54:04.012Z,0.00
2018-02-20T04:55:03.983Z,0.00
2018-02-20T04:56:03.945Z,0.00
2018-02-20T04:57:04.160Z,0.00
2018-02-20T04:58:03.881Z,0.00
2018-02-20T04:59:03.850Z,0.00
2018-02-20T05:00:03.806Z,0.00
2018-02-20T05:01:03.779Z,0.00
2018-02-20T05:02:03.741Z,0.00
2018-02-20T05:03:04.007Z,0.00
2018-02-20T05:04:03.680Z,0.00
2018-02-20T05:05:03.648Z,0.00
2018-02-20T05:06:03.605Z,0.00
2018-02-20T05:07:03.578Z,0.00
2018-02-20T05:08:03.534Z,0.00
2018-02-20T05:09:03.510Z,0.00
2018-02-20T05:10:03.472Z,0.00
2018-02-20T05:11:03.441Z,0.00
2018-02-20T05:12:03.404Z,0.00
2018-02-20T05:13:03.369Z,0.00
2018-02-20T05:14:03.336Z,0.00
2018-02-20T05:15:03.307Z,0.00
2018-02-20T05:16:03.270Z,0.00
2018-02-20T05:17:03.232Z,0.00
2018-02-20T05:18:03.196Z,0.00
2018-02-20T05:19:03.166Z,0.00
2018-02-20T05:20:03.138Z,0.00
2018-02-20T05:21:03.098Z,0.00
2018-02-20T05:22:03.066Z,0.00
2018-02-20T05:23:03.035Z,0.00
2018-02-20T05:24:03.001Z,0.00
2018-02-20T05:25:02.963Z,0.00
2018-02-20T05:26:03.183Z,0.00
2018-02-20T05:27:02.899Z,0.00
2018-02-20T05:28:02.862Z,0.00
2018-02-20T05:29:02.822Z,0.00
2018-02-20T05:30:02.797Z,0.00
2018-02-20T05:31:02.762Z,0.00
2018-02-20T05:32:02.728Z,0.00
2018-02-20T05:33:02.694Z,0.00
2018-02-20T05:34:02.658Z,0.00
2018-02-20T05:35:02.630Z,0.00
2018-02-20T05:36:02.597Z,0.00
2018-02-20T05:37:02.562Z,0.00
2018-02-20T05:38:02.874Z,0.00
2018-02-20T05:39:02.492Z,0.00
2018-02-20T05:40:02.453Z,0.00
2018-02-20T05:41:02.434Z,0.00
2018-02-20T05:42:02.393Z,0.00
2018-02-20T05:43:02.357Z,0.00
2018-02-20T05:44:02.318Z,0.00
2018-02-20T05:45:02.294Z,0.00
2018-02-20T05:46:02.251Z,0.00
2018-02-20T05:47:02.224Z,0.00
2018-02-20T05:48:02.192Z,0.00
2018-02-20T05:49:02.154Z,0.00
2018-02-20T05:50:02.474Z,0.00
2018-02-20T05:51:02.080Z,4.00
2018-02-20T05:52:02.053Z,4.00
2018-02-20T05:53:02.021Z,0.00
2018-02-20T05:54:01.987Z,4.00
2018-02-20T05:55:01.952Z,4.00
2018-02-20T05:56:01.910Z,4.00
2018-02-20T05:57:01.882Z,4.00
2018-02-20T05:58:01.846Z,4.00
2018-02-20T05:59:01.817Z,8.00
2018-02-20T06:00:01.776Z,8.00
2018-02-20T06:01:01.742Z,12.00
2018-02-20T06:02:01.708Z,12.00
2018-02-20T06:03:01.681Z,12.00
2018-02-20T06:04:01.644Z,20.00
2018-02-20T06:05:01.611Z,20.00
2018-02-20T06:06:01.578Z,24.00
2018-02-20T06:07:01.541Z,28.00
2018-02-20T06:08:01.513Z,32.00
2018-02-20T06:09:01.481Z,40.00
2018-02-20T06:10:01.441Z,44.00
2018-02-20T06:11:01.406Z,52.00
2018-02-20T06:12:01.722Z,64.00
2018-02-20T06:13:01.338Z,76.00
2018-02-20T06:14:01.311Z,84.00
2018-02-20T06:15:01.271Z,96.00
2018-02-20T06:16:01.240Z,112.00
2018-02-20T06:17:01.198Z,128.00
2018-02-20T06:18:01.164Z,144.00
2018-02-20T06:19:01.132Z,164.00
2018-02-20T06:20:01.098Z,184.00
2018-02-20T06:21:01.067Z,208.00
2018-02-20T06:22:01.043Z,236.00
2018-02-20T06:23:00.995Z,260.00
2018-02-20T06:24:01.270Z,292.00
2018-02-20T06:25:00.936Z,324.00
2018-02-20T06:26:00.892Z,356.00
2018-02-20T06:27:00.870Z,388.00
2018-02-20T06:28:00.824Z,428.00
2018-02-20T06:29:00.789Z,468.00
2018-02-20T06:30:00.762Z,508.00
2018-02-20T06:31:00.728Z,552.00
2018-02-20T06:32:00.690Z,596.00
2018-02-20T06:33:00.655Z,648.00
2018-02-20T06:34:00.619Z,692.00
2018-02-20T06:35:00.587Z,744.00
2018-02-20T06:36:00.807Z,800.00
2018-02-20T06:37:00.527Z,852.00
2018-02-20T06:38:00.487Z,912.00
2018-02-20T06:39:00.453Z,972.00
2018-02-20T06:40:00.422Z,1036.00
2018-02-20T06:41:00.383Z,1104.00
2018-02-20T06:42:00.604Z,1172.00
2018-02-20T06:43:00.326Z,1252.00
2018-02-20T06:44:00.280Z,1324.00
2018-02-20T06:45:00.248Z,1404.00
2018-02-20T06:46:00.215Z,1484.00
2018-02-20T06:47:00.185Z,1580.00
2018-02-20T06:48:00.149Z,1684.00
2018-02-20T06:49:00.110Z,1780.00
2018-02-20T06:50:00.078Z,1872.00
2018-02-20T06:51:00.043Z,1964.00
2018-02-20T06:52:00.022Z,2056.00
2018-02-20T06:52:59.983Z,2152.00
2018-02-20T06:53:59.944Z,2244.00
2018-02-20T06:54:59.908Z,2348.00
2018-02-20T06:55:59.881Z,2448.00
2018-02-20T06:56:59.846Z,2552.00
2018-02-20T06:57:59.816Z,2660.00
2018-02-20T06:58:59.775Z,2764.00
2018-02-20T06:59:59.996Z,2880.00
2018-02-20T07:00:59.705Z,2992.00
2018-02-20T07:01:59.677Z,3112.00
2018-02-20T07:02:59.645Z,3232.00
2018-02-20T07:03:59.606Z,3360.00
2018-02-20T07:04:59.573Z,3484.00
2018-02-20T07:05:59.543Z,3620.00
2018-02-20T07:06:59.509Z,3756.00
2018-02-20T07:07:59.482Z,3880.00
2018-02-20T07:08:59.457Z,4024.00
2018-02-20T07:09:59.417Z,4180.00
2018-02-20T07:10:59.633Z,4328.00
2018-02-20T07:11:59.346Z,4476.00
2018-02-20T07:12:59.304Z,4644.00
2018-02-20T07:13:59.278Z,4808.00
2018-02-20T07:14:59.245Z,4972.00
2018-02-20T07:15:59.212Z,5152.00
2018-02-20T07:16:59.182Z,5344.00
2018-02-20T07:17:59.144Z,5504.00
2018-02-20T07:18:59.121Z,5660.00
2018-02-20T07:19:59.105Z,5848.00
2018-02-20T07:20:59.054Z,6056.00
2018-02-20T07:21:59.020Z,6244.00
2018-02-20T07:22:59.293Z,6384.00
2018-02-20T07:23:58.984Z,6600.00
2018-02-20T07:24:58.918Z,6840.00
2018-02-20T07:25:58.891Z,7068.00
2018-02-20T07:26:58.862Z,7248.00
2018-02-20T07:27:58.820Z,7440.00
2018-02-20T07:28:58.789Z,7632.00
2018-02-20T07:29:58.756Z,7864.00
2018-02-20T07:30:58.724Z,8056.00
2018-02-20T07:31:58.699Z,8216.00
2018-02-20T07:32:58.668Z,8388.00
2018-02-20T07:33:58.634Z,8536.00
2018-02-20T07:34:58.905Z,8716.00
2018-02-20T07:35:58.574Z,8828.00
2018-02-20T07:36:58.543Z,8972.00
2018-02-20T07:37:58.515Z,9116.00
2018-02-20T07:38:58.484Z,9420.00
2018-02-20T07:39:58.444Z,9604.00
2018-02-20T07:40:58.421Z,9748.00
2018-02-20T07:41:58.392Z,10044.00
2018-02-20T07:42:58.357Z,10308.00
2018-02-20T07:43:58.340Z,10672.00
2018-02-20T07:44:58.293Z,10988.00
2018-02-20T07:45:58.263Z,11148.00
2018-02-20T07:46:58.232Z,11348.00
2018-02-20T07:47:58.203Z,11504.00
2018-02-20T07:48:58.184Z,11816.00
2018-02-20T07:49:58.141Z,12064.00
2018-02-20T07:50:58.106Z,12244.00
2018-02-20T07:51:58.081Z,12396.00
2018-02-20T07:52:58.052Z,12568.00
2018-02-20T07:53:58.021Z,12940.00
2018-02-20T07:54:58.021Z,13044.00
2018-02-20T07:55:57.968Z,13064.00
2018-02-20T07:56:57.934Z,13464.00
2018-02-20T07:57:57.905Z,13864.00
2018-02-20T07:58:57.877Z,14016.00
2018-02-20T07:59:57.840Z,14184.00
2018-02-20T08:00:57.807Z,14816.00
2018-02-20T08:01:57.780Z,15328.00
2018-02-20T08:02:57.753Z,15840.00
2018-02-20T08:03:57.972Z,16160.00
2018-02-20T08:04:57.693Z,16832.00
2018-02-20T08:05:57.668Z,17216.00
2018-02-20T08:06:57.636Z,17856.00
2018-02-20T08:07:57.608Z,17984.00
2018-02-20T08:08:57.579Z,18112.00
2018-02-20T08:09:57.554Z,18560.00
2018-02-20T08:10:57.528Z,18880.00
2018-02-20T08:11:57.491Z,19040.00
2018-02-20T08:12:57.454Z,19232.00
2018-02-20T08:13:57.437Z,18816.00
2018-02-20T08:14:57.408Z,18976.00
2018-02-20T08:15:57.672Z,19328.00
2018-02-20T08:16:57.341Z,19584.00
2018-02-20T08:17:57.320Z,20160.00
2018-02-20T08:18:57.287Z,20128.00
2018-02-20T08:19:57.269Z,19936.00
2018-02-20T08:20:57.534Z,20192.00
2018-02-20T08:21:57.212Z,20128.00
2018-02-20T08:22:57.175Z,19840.00
2018-02-20T08:23:57.150Z,19712.00
2018-02-20T08:24:57.118Z,19712.00
2018-02-20T08:25:57.091Z,19456.00
2018-02-20T08:26:57.094Z,19040.00
2018-02-20T08:27:57.031Z,19104.00
2018-02-20T08:28:57.006Z,19232.00
2018-02-20T08:29:56.976Z,19168.00
2018-02-20T08:30:56.953Z,18912.00
2018-02-20T08:31:56.917Z,19328.00
2018-02-20T08:32:57.154Z,19680.00
2018-02-20T08:33:56.867Z,19840.00
2018-02-20T08:34:56.843Z,20224.00
2018-02-20T08:35:56.816Z,20608.00
2018-02-20T08:36:56.786Z,21536.00
2018-02-20T08:37:56.754Z,22848.00
2018-02-20T08:38:56.730Z,23840.00
2018-02-20T08:39:56.715Z,23808.00
2018-02-20T08:40:56.680Z,23584.00
2018-02-20T08:41:56.653Z,23648.00
2018-02-20T08:42:56.624Z,23968.00
2018-02-20T08:43:56.595Z,23968.00
2018-02-20T08:44:56.566Z,24320.00
2018-02-20T08:45:56.547Z,24224.00
2018-02-20T08:46:56.521Z,24000.00
2018-02-20T08:47:56.498Z,24320.00
2018-02-20T08:48:56.458Z,24448.00
2018-02-20T08:49:56.645Z,24384.00
2018-02-20T08:50:56.417Z,24608.00
2018-02-20T08:51:56.382Z,24896.00
2018-02-20T08:52:56.368Z,25376.00
2018-02-20T08:53:56.333Z,25728.00
2018-02-20T08:54:56.300Z,26368.00
2018-02-20T08:55:56.486Z,26336.00
2018-02-20T08:56:56.761Z,26400.00
2018-02-20T08:57:56.228Z,26848.00
2018-02-20T08:58:56.421Z,26912.00
2018-02-20T08:59:56.375Z,27296.00
2018-02-20T09:00:56.145Z,26752.00
2018-02-20T09:01:56.124Z,27168.00
2018-02-20T09:02:56.349Z,27424.00
2018-02-20T09:03:56.076Z,27712.00
2018-02-20T09:04:56.045Z,28096.00
2018-02-20T09:05:56.028Z,28576.00
2018-02-20T09:06:55.996Z,28288.00
2018-02-20T09:07:55.976Z,28512.00
2018-02-20T09:08:55.949Z,28576.00
2018-02-20T09:09:55.922Z,28800.00
2018-02-20T09:10:55.890Z,29152.00
2018-02-20T09:11:55.865Z,29024.00
2018-02-20T09:12:55.847Z,29056.00
2018-02-20T09:13:55.823Z,28992.00
2018-02-20T09:14:55.795Z,29632.00
2018-02-20T09:15:55.765Z,29568.00
2018-02-20T09:16:55.746Z,28288.00
2018-02-20T09:17:55.719Z,28416.00
2018-02-20T09:18:55.692Z,29280.00
2018-02-20T09:19:55.672Z,29824.00
2018-02-20T09:20:55.645Z,29376.00
2018-02-20T09:21:55.618Z,29792.00
2018-02-20T09:22:55.609Z,30784.00
2018-02-20T09:23:55.566Z,31072.00
2018-02-20T09:24:55.542Z,31040.00
2018-02-20T09:25:55.533Z,31456.00
2018-02-20T09:26:55.498Z,31136.00
2018-02-20T09:27:55.476Z,31264.00
2018-02-20T09:28:55.442Z,31584.00
2018-02-20T09:29:55.421Z,31712.00
2018-02-20T09:30:55.396Z,31360.00
2018-02-20T09:31:55.386Z,32224.00
2018-02-20T09:32:55.348Z,32608.00
2018-02-20T09:33:55.324Z,32384.00
2018-02-20T09:34:55.300Z,33312.00
2018-02-20T09:35:55.271Z,33504.00
2018-02-20T09:36:55.250Z,32672.00
2018-02-20T09:37:55.235Z,33440.00
2018-02-20T09:38:55.209Z,35168.00
2018-02-20T09:39:55.190Z,36032.00
2018-02-20T09:40:55.150Z,36800.00
2018-02-20T09:41:55.123Z,37600.00
2018-02-20T09:42:55.350Z,37792.00
2018-02-20T09:43:55.076Z,37984.00
2018-02-20T09:44:55.058Z,37856.00
2018-02-20T09:45:55.036Z,38176.00
2018-02-20T09:46:55.007Z,38624.00
2018-02-20T09:47:54.980Z,39008.00
2018-02-20T09:48:55.016Z,40000.00
2018-02-20T09:49:54.934Z,40448.00
2018-02-20T09:50:54.910Z,40896.00
2018-02-20T09:51:54.892Z,40672.00
2018-02-20T09:52:54.858Z,40416.00
2018-02-20T09:53:54.834Z,40576.00
2018-02-20T09:54:54.813Z,40320.00
2018-02-20T09:55:54.786Z,40640.00
2018-02-20T09:56:54.758Z,40128.00
2018-02-20T09:57:54.739Z,40576.00
2018-02-20T09:58:54.717Z,41056.00
2018-02-20T09:59:54.685Z,41728.00
2018-02-20T10:00:54.659Z,41888.00
2018-02-20T10:01:54.637Z,42624.00
2018-02-20T10:02:54.613Z,42560.00
2018-02-20T10:03:54.591Z,42208.00
2018-02-20T10:04:54.571Z,42336.00
2018-02-20T10:05:54.544Z,43008.00
2018-02-20T10:06:54.820Z,44224.00
2018-02-20T10:07:54.502Z,45056.00
2018-02-20T10:08:54.473Z,44480.00
2018-02-20T10:09:54.446Z,44320.00
2018-02-20T10:10:54.441Z,45312.00
2018-02-20T10:11:54.396Z,45312.00
2018-02-20T10:12:54.370Z,44320.00
2018-02-20T10:13:54.355Z,45888.00
2018-02-20T10:14:54.327Z,46048.00
2018-02-20T10:15:54.306Z,44640.00
2018-02-20T10:16:54.270Z,46208.00
2018-02-20T10:17:54.253Z,48352.00
2018-02-20T10:18:54.230Z,46688.00
2018-02-20T10:19:54.217Z,47168.00
2018-02-20T10:20:54.198Z,45472.00
2018-02-20T10:21:54.165Z,45856.00
2018-02-20T10:22:54.146Z,46592.00
2018-02-20T10:23:54.113Z,45408.00
2018-02-20T10:24:54.088Z,45184.00
2018-02-20T10:25:54.069Z,45664.00
2018-02-20T10:26:54.050Z,46112.00
2018-02-20T10:27:54.008Z,46144.00
2018-02-20T10:28:53.987Z,45600.00
2018-02-20T10:29:53.973Z,45760.00
2018-02-20T10:30:53.946Z,45664.00
2018-02-20T10:31:53.918Z,45696.00
2018-02-20T10:32:53.890Z,45536.00
2018-02-20T10:33:53.870Z,45888.00
2018-02-20T10:34:53.851Z,45120.00
2018-02-20T10:35:54.123Z,44864.00
2018-02-20T10:36:53.799Z,44512.00
2018-02-20T10:37:53.771Z,44768.00
2018-02-20T10:38:53.852Z,46144.00
2018-02-20T10:39:53.730Z,46624.00
2018-02-20T10:40:53.701Z,46240.00
2018-02-20T10:41:53.930Z,46400.00
2018-02-20T10:42:53.657Z,47296.00
2018-02-20T10:43:53.623Z,47104.00
2018-02-20T10:44:53.605Z,47072.00
2018-02-20T10:45:53.582Z,46560.00
2018-02-20T10:46:53.556Z,46496.00
2018-02-20T10:47:53.620Z,46432.00
2018-02-20T10:48:53.516Z,45248.00
2018-02-20T10:49:53.492Z,45248.00
2018-02-20T10:50:53.471Z,48032.00
2018-02-20T10:51:53.470Z,48352.00
2018-02-20T10:52:53.410Z,48512.00
2018-02-20T10:53:53.392Z,48704.00
2018-02-20T10:54:53.358Z,48416.00
2018-02-20T10:55:53.347Z,48160.00
2018-02-20T10:56:53.322Z,47520.00
2018-02-20T10:57:53.303Z,48480.00
2018-02-20T10:58:53.271Z,50304.00
2018-02-20T10:59:53.245Z,51168.00
2018-02-20T11:00:53.222Z,51744.00
2018-02-20T11:01:53.206Z,52064.00
2018-02-20T11:02:53.174Z,50656.00
2018-02-20T11:03:53.148Z,48992.00
2018-02-20T11:04:53.126Z,49536.00
2018-02-20T11:05:53.101Z,49504.00
2018-02-20T11:06:53.077Z,49792.00
2018-02-20T11:07:53.067Z,50624.00
2018-02-20T11:08:53.040Z,49504.00
2018-02-20T11:09:53.009Z,48224.00
2018-02-20T11:10:52.980Z,49216.00
2018-02-20T11:11:52.962Z,50880.00
2018-02-20T11:12:52.940Z,51136.00
2018-02-20T11:13:52.917Z,48288.00
2018-02-20T11:14:52.893Z,47872.00
2018-02-20T11:15:52.867Z,48320.00
2018-02-20T11:16:52.863Z,47616.00
2018-02-20T11:17:52.826Z,49504.00
2018-02-20T11:18:52.799Z,49280.00
2018-02-20T11:19:52.771Z,46528.00
2018-02-20T11:20:52.747Z,42656.00
2018-02-20T11:21:52.729Z,45984.00
2018-02-20T11:22:52.700Z,47168.00
2018-02-20T11:23:52.682Z,49312.00
2018-02-20T11:24:52.658Z,45728.00
2018-02-20T11:25:52.635Z,43136.00
2018-02-20T11:26:52.614Z,45568.00
2018-02-20T11:27:52.581Z,42112.00
2018-02-20T11:28:52.568Z,45184.00
2018-02-20T11:29:52.547Z,45408.00
2018-02-20T11:30:52.538Z,46400.00
2018-02-20T11:31:52.495Z,44928.00
2018-02-20T11:32:52.491Z,40032.00
2018-02-20T11:33:52.454Z,22624.00
2018-02-20T11:34:52.424Z,20768.00
2018-02-20T11:35:52.405Z,37088.00
2018-02-20T11:36:52.380Z,23776.00
2018-02-20T11:37:52.358Z,23872.00
2018-02-20T11:38:52.336Z,32512.00
2018-02-20T11:39:52.563Z,42272.00
2018-02-20T11:40:52.283Z,49376.00
2018-02-20T11:41:52.260Z,49504.00
2018-02-20T11:42:52.240Z,48672.00
2018-02-20T11:43:52.250Z,48256.00
2018-02-20T11:44:52.188Z,43840.00
2018-02-20T11:45:52.418Z,44992.00
2018-02-20T11:46:52.136Z,44288.00
2018-02-20T11:47:52.119Z,43776.00
2018-02-20T11:48:52.097Z,39040.00
2018-02-20T11:49:52.065Z,39808.00
2018-02-20T11:50:52.054Z,38464.00
2018-02-20T11:51:52.019Z,21920.00
2018-02-20T11:52:52.005Z,45760.00
2018-02-20T11:53:51.980Z,43296.00
2018-02-20T11:54:51.952Z,21792.00
2018-02-20T11:55:51.921Z,20128.00
2018-02-20T11:56:51.897Z,19680.00
2018-02-20T11:57:51.874Z,18816.00
2018-02-20T11:58:51.858Z,18592.00
2018-02-20T11:59:51.825Z,17636.00
2018-02-20T12:00:51.802Z,16272.00
2018-02-20T12:01:51.783Z,14936.00
2018-02-20T12:02:51.749Z,14512.00
2018-02-20T12:03:51.729Z,14232.00
2018-02-20T12:04:51.702Z,14156.00
2018-02-20T12:05:51.704Z,14408.00
2018-02-20T12:06:51.651Z,14388.00
2018-02-20T12:07:51.628Z,16828.00
2018-02-20T12:08:51.608Z,28992.00
2018-02-20T12:09:51.575Z,19136.00
2018-02-20T12:10:51.551Z,18848.00
2018-02-20T12:11:51.517Z,21344.00
2018-02-20T12:12:51.492Z,30976.00
2018-02-20T12:13:51.471Z,20928.00
2018-02-20T12:14:51.696Z,21344.00
2018-02-20T12:15:51.416Z,23456.00
2018-02-20T12:16:51.384Z,45312.00
2018-02-20T12:17:51.364Z,42912.00
2018-02-20T12:18:51.329Z,42688.00
2018-02-20T12:19:51.315Z,44992.00
2018-02-20T12:20:51.279Z,45728.00
2018-02-20T12:21:51.251Z,46688.00
2018-02-20T12:22:51.224Z,44800.00
2018-02-20T12:23:51.205Z,42336.00
2018-02-20T12:24:51.178Z,42560.00
2018-02-20T12:25:51.151Z,44256.00
2018-02-20T12:26:51.133Z,44224.00
2018-02-20T12:27:51.098Z,42080.00
2018-02-20T12:28:51.073Z,41344.00
2018-02-20T12:29:51.055Z,41248.00
2018-02-20T12:30:51.028Z,41472.00